100LL.CA
Aviation Fuel Pricing for Canadians
Please upgrade your browser - Tested with IE9, FireFox, Chrome, Safari

Fuel Prices Airport Info Airport List METAR / TAF Kneeboard RSS

Reference Airport: Edson, AB
N 53 34 44   W 116 27 54

CYET Edson, AB
WEATHER
METARCYET 240800Z AUTO 00000KT 9SM CLR M04/M05 A2987 RMK SLP153
REF N 53 34 44  W 116 27 54    Adj SW    16E (2013)
UTC-7(6)    Elev 3043    A5014 LO1 LO2 HI3 CAP
OPR Town 780-723-6300/4010
Cert Ldg fees
PFA-1,3,7 C-2,4,5,6
FLT PLN NOTAM FILE CYET
FIC Edmonton 866-WXBRIEF (Toll free within Canada) or 866-541-4102 (Toll free within Canada & USA)
ACCEdmonton IFR 888-358-7526
WXMETAR AUTO H24 (see COMM) WxCam
SERVICES
FUEL100LL, JA (FSII avbl) 780-723-3134
PRICESFBO: Jet Alta: 100LL public: 1.459; JETA: 1.299; current as of 2017-01-18.
Note: Landing fees apply. Fuel is now Cardlock Accessible with all major Credit Cards.
S4
RWY DATARwy 07(074)/25(254) 6000x100 asphalt Rwy 07 down 0.37% Thld 07 displ 594. Thld 25 displ 484.
TWYTwy D rstd to Alta Forestry use only. No win maint.
RCROpr Win maint 14-23Z Mon-Fri exc hols
LIGHTING07-(TE ME) P1, 25-(TE ME) P1 ARCAL-123.2 type K
COMM
ATFtfc 123.2 5NM 6100 ASL
AWOS128.75
NAV
CAUTIONWater bomber activity at or in vic of A/D Apr thru Sep. Wildlife in vic of rwy.
Effective 0901Z 05 January 2017 to 0901Z 02 March 2017